Santa Fe Municipal Airport
KSAF : now visible

Airfield :











YOU CAN JOIN US ON...

 
LOGIN :

Register | Disclaimer

   EN    FR    IT 

 









Legend :    VFR   Marginal VFR   IFR   Intensive IFR   Very Intensive IFR
Visi :
Ceiling :
>= 8 km
>= 3000ft
5 to 8 km
1000 to 3000 ft
1500m to 5 km
500 to 1000 ft
800 to 1500m
200 to 500 ft
< 800m
< 200 ft
Symbols :   Thunderstorms  Fog  Heavy snow  Heavy precipitations  Wind > 20 kt






- Airport Elevation : 6348 ft


KSAF - Santa Fe Municipal

CURRENT METAR :
  • 152353Z 23006KT 10SM CLR 19/M10 A3020 RMK AO2 SLP165 T01941100 10222 20189 53005

EXPIRED METARs :
  • 152253Z 25009KT 10SM CLR 21/M11 A3019 RMK AO2 SLP156 T02111111
  • 152153Z 24008G14KT 10SM CLR 22/M11 A3019 RMK AO2 SLP149 T02171106

TAF KSAF
Valid from the 16 at 00:00 until the 17 at 00:00 UTC


152341Z 1600/1624 29008KT P6SM SKC
FM160300 11011G18KT P6SM SKC
FM160800 10007KT P6SM SKC
FM162000 24006KT P6SM SKC



MET'MAP, your aeronautical weather chart ! - Copyright ORBIFLY December 2007 - Disclaimer

ORBIFLY MET'MAP TEAM :

Programming & Development : Alexandra Zaïnal
Concept & Development : Baudouin d'Aumeries
Co-Development & Prog : Marc-Olivier Méhu
Technical & hardware support : Manuel Goepfert

Contact : metmap@orbifly.com




SOURCES & CREDITS :

   NOAA       Earth
Advisory